sensor_id;sensor_type;location;lat;lon;timestamp;temperature;humidity
15257;DHT22;7731;50.720;6.912;2022-12-18T00:01:34;-4.90;99.90
15257;DHT22;7731;50.720;6.912;2022-12-18T00:04:07;-4.80;99.90
15257;DHT22;7731;50.720;6.912;2022-12-18T00:06:45;-4.80;99.90
15257;DHT22;7731;50.720;6.912;2022-12-18T00:09:16;-4.80;99.90
15257;DHT22;7731;50.720;6.912;2022-12-18T00:11:51;-4.70;99.90
15257;DHT22;7731;50.720;6.912;2022-12-18T00:14:24;-4.80;99.90
15257;DHT22;7731;50.720;6.912;2022-12-18T00:16:54;-4.80;99.90
15257;DHT22;7731;50.720;6.912;2022-12-18T00:19:27;-4.90;99.90
15257;DHT22;7731;50.720;6.912;2022-12-18T00:21:59;-5.00;99.90
15257;DHT22;7731;50.720;6.912;2022-12-18T00:24:29;-5.00;99.90
15257;DHT22;7731;50.720;6.912;2022-12-18T00:27:00;-4.90;99.90
15257;DHT22;7731;50.720;6.912;2022-12-18T00:29:32;-4.90;99.90
15257;DHT22;7731;50.720;6.912;2022-12-18T00:32:03;-5.00;99.90
15257;DHT22;7731;50.720;6.912;2022-12-18T00:34:33;-5.30;99.90
15257;DHT22;7731;50.720;6.912;2022-12-18T00:37:03;-5.40;99.90
15257;DHT22;7731;50.720;6.912;2022-12-18T00:39:33;-5.50;99.90
15257;DHT22;7731;50.720;6.912;2022-12-18T00:42:04;-5.40;99.90
15257;DHT22;7731;50.720;6.912;2022-12-18T00:44:54;-5.50;99.90
15257;DHT22;7731;50.720;6.912;2022-12-18T00:47:27;-5.40;99.90
15257;DHT22;7731;50.720;6.912;2022-12-18T00:49:57;-5.30;99.90
15257;DHT22;7731;50.720;6.912;2022-12-18T00:52:28;-5.20;99.90
15257;DHT22;7731;50.720;6.912;2022-12-18T00:54:58;-5.20;99.90
15257;DHT22;7731;50.720;6.912;2022-12-18T00:57:32;-5.10;99.90
15257;DHT22;7731;50.720;6.912;2022-12-18T01:00:07;-5.10;99.90
15257;DHT22;7731;50.720;6.912;2022-12-18T01:02:40;-5.00;99.90
15257;DHT22;7731;50.720;6.912;2022-12-18T01:05:13;-5.00;99.90
15257;DHT22;7731;50.720;6.912;2022-12-18T01:07:44;-5.00;99.90
15257;DHT22;7731;50.720;6.912;2022-12-18T01:10:16;-4.90;99.90
15257;DHT22;7731;50.720;6.912;2022-12-18T01:12:47;-4.90;99.90
15257;DHT22;7731;50.720;6.912;2022-12-18T01:15:20;-4.90;99.90
15257;DHT22;7731;50.720;6.912;2022-12-18T01:17:52;-4.80;99.90
15257;DHT22;7731;50.720;6.912;2022-12-18T01:20:22;-4.90;99.90
15257;DHT22;7731;50.720;6.912;2022-12-18T01:22:52;-4.80;99.90
15257;DHT22;7731;50.720;6.912;2022-12-18T01:25:22;-4.80;99.90
15257;DHT22;7731;50.720;6.912;2022-12-18T01:27:52;-4.80;99.90
15257;DHT22;7731;50.720;6.912;2022-12-18T01:30:25;-4.80;99.90
15257;DHT22;7731;50.720;6.912;2022-12-18T01:32:55;-4.80;99.90
15257;DHT22;7731;50.720;6.912;2022-12-18T01:35:25;-4.80;99.90
15257;DHT22;7731;50.720;6.912;2022-12-18T01:37:56;-4.90;99.90
15257;DHT22;7731;50.720;6.912;2022-12-18T01:40:27;-5.00;99.90
15257;DHT22;7731;50.720;6.912;2022-12-18T01:42:58;-5.10;99.90
15257;DHT22;7731;50.720;6.912;2022-12-18T01:45:32;-5.00;99.90
15257;DHT22;7731;50.720;6.912;2022-12-18T01:48:04;-5.10;99.90
15257;DHT22;7731;50.720;6.912;2022-12-18T01:50:39;-5.00;99.90
15257;DHT22;7731;50.720;6.912;2022-12-18T01:53:14;-4.90;99.90
15257;DHT22;7731;50.720;6.912;2022-12-18T01:55:47;-5.00;99.90
15257;DHT22;7731;50.720;6.912;2022-12-18T01:58:22;-5.00;99.90
15257;DHT22;7731;50.720;6.912;2022-12-18T02:01:00;-5.00;99.90
15257;DHT22;7731;50.720;6.912;2022-12-18T02:03:31;-4.90;99.90
15257;DHT22;7731;50.720;6.912;2022-12-18T02:06:07;-5.00;99.90
15257;DHT22;7731;50.720;6.912;2022-12-18T02:08:50;-5.00;99.90
15257;DHT22;7731;50.720;6.912;2022-12-18T02:11:37;-5.00;99.90
15257;DHT22;7731;50.720;6.912;2022-12-18T02:14:23;-5.00;99.90
15257;DHT22;7731;50.720;6.912;2022-12-18T02:17:05;-5.00;99.90
15257;DHT22;7731;50.720;6.912;2022-12-18T02:19:47;-5.00;99.90
15257;DHT22;7731;50.720;6.912;2022-12-18T02:22:39;-4.90;99.90
15257;DHT22;7731;50.720;6.912;2022-12-18T02:25:28;-4.90;99.90
15257;DHT22;7731;50.720;6.912;2022-12-18T02:28:20;-4.90;99.90
15257;DHT22;7731;50.720;6.912;2022-12-18T02:30:56;-4.90;99.90
15257;DHT22;7731;50.720;6.912;2022-12-18T02:33:34;-4.90;99.90
15257;DHT22;7731;50.720;6.912;2022-12-18T02:36:08;-4.90;99.90
15257;DHT22;7731;50.720;6.912;2022-12-18T02:38:42;-4.90;99.90
15257;DHT22;7731;50.720;6.912;2022-12-18T02:41:16;-4.90;99.90
15257;DHT22;7731;50.720;6.912;2022-12-18T02:43:55;-4.90;99.90
15257;DHT22;7731;50.720;6.912;2022-12-18T02:46:33;-4.90;99.90
15257;DHT22;7731;50.720;6.912;2022-12-18T02:49:14;-4.90;99.90
15257;DHT22;7731;50.720;6.912;2022-12-18T02:52:04;-5.00;99.90
15257;DHT22;7731;50.720;6.912;2022-12-18T02:55:05;-5.00;99.90
15257;DHT22;7731;50.720;6.912;2022-12-18T02:57:52;-5.10;99.90
15257;DHT22;7731;50.720;6.912;2022-12-18T03:00:31;-5.10;99.90
15257;DHT22;7731;50.720;6.912;2022-12-18T03:03:11;-5.10;99.90
15257;DHT22;7731;50.720;6.912;2022-12-18T03:05:52;-5.10;99.90
15257;DHT22;7731;50.720;6.912;2022-12-18T03:08:28;-5.10;99.90
15257;DHT22;7731;50.720;6.912;2022-12-18T03:11:03;-5.20;99.90
15257;DHT22;7731;50.720;6.912;2022-12-18T03:13:38;-5.30;99.90
15257;DHT22;7731;50.720;6.912;2022-12-18T03:16:19;-5.30;99.90
15257;DHT22;7731;50.720;6.912;2022-12-18T03:18:55;-5.40;99.90
15257;DHT22;7731;50.720;6.912;2022-12-18T03:21:34;-5.40;99.90
15257;DHT22;7731;50.720;6.912;2022-12-18T03:24:11;-5.40;99.90
15257;DHT22;7731;50.720;6.912;2022-12-18T03:26:45;-5.50;99.90
15257;DHT22;7731;50.720;6.912;2022-12-18T03:29:22;-5.60;99.90
15257;DHT22;7731;50.720;6.912;2022-12-18T03:32:04;-5.60;99.90
15257;DHT22;7731;50.720;6.912;2022-12-18T03:34:39;-5.70;99.90
15257;DHT22;7731;50.720;6.912;2022-12-18T03:37:11;-5.70;99.90
15257;DHT22;7731;50.720;6.912;2022-12-18T03:39:41;-5.70;99.90
15257;DHT22;7731;50.720;6.912;2022-12-18T03:42:16;-5.70;99.90
15257;DHT22;7731;50.720;6.912;2022-12-18T03:45:00;-5.70;99.90
15257;DHT22;7731;50.720;6.912;2022-12-18T03:47:46;-5.70;99.90
15257;DHT22;7731;50.720;6.912;2022-12-18T03:50:35;-5.70;99.90
15257;DHT22;7731;50.720;6.912;2022-12-18T03:53:25;-5.60;99.90
15257;DHT22;7731;50.720;6.912;2022-12-18T03:56:04;-5.30;99.90
15257;DHT22;7731;50.720;6.912;2022-12-18T03:58:38;-5.20;99.90
15257;DHT22;7731;50.720;6.912;2022-12-18T04:01:14;-4.90;99.90
15257;DHT22;7731;50.720;6.912;2022-12-18T04:03:51;-4.70;99.90
15257;DHT22;7731;50.720;6.912;2022-12-18T04:06:23;-4.60;99.90
15257;DHT22;7731;50.720;6.912;2022-12-18T04:08:54;-4.50;99.90
15257;DHT22;7731;50.720;6.912;2022-12-18T04:11:24;-4.50;99.90
15257;DHT22;7731;50.720;6.912;2022-12-18T04:13:56;-4.50;99.90
15257;DHT22;7731;50.720;6.912;2022-12-18T04:16:32;-4.50;99.90
15257;DHT22;7731;50.720;6.912;2022-12-18T04:19:05;-4.50;99.90
15257;DHT22;7731;50.720;6.912;2022-12-18T04:21:35;-4.40;99.90
15257;DHT22;7731;50.720;6.912;2022-12-18T04:24:06;-4.40;99.90
15257;DHT22;7731;50.720;6.912;2022-12-18T04:26:38;-4.40;99.90
15257;DHT22;7731;50.720;6.912;2022-12-18T04:29:09;-4.40;99.90
15257;DHT22;7731;50.720;6.912;2022-12-18T04:31:39;-4.50;99.90
15257;DHT22;7731;50.720;6.912;2022-12-18T04:34:13;-4.40;99.90
15257;DHT22;7731;50.720;6.912;2022-12-18T04:36:43;-4.50;99.90
15257;DHT22;7731;50.720;6.912;2022-12-18T04:39:14;-4.40;99.90
15257;DHT22;7731;50.720;6.912;2022-12-18T04:41:48;-4.40;99.90
15257;DHT22;7731;50.720;6.912;2022-12-18T04:44:18;-4.40;99.90
15257;DHT22;7731;50.720;6.912;2022-12-18T04:46:50;-4.40;99.90
15257;DHT22;7731;50.720;6.912;2022-12-18T04:49:24;-4.40;99.90
15257;DHT22;7731;50.720;6.912;2022-12-18T04:51:54;-4.40;99.90
15257;DHT22;7731;50.720;6.912;2022-12-18T04:54:24;-4.50;99.90
15257;DHT22;7731;50.720;6.912;2022-12-18T04:56:54;-4.50;99.90
15257;DHT22;7731;50.720;6.912;2022-12-18T04:59:26;-4.50;99.90
15257;DHT22;7731;50.720;6.912;2022-12-18T05:01:57;-4.50;99.90
15257;DHT22;7731;50.720;6.912;2022-12-18T05:04:30;-4.50;99.90
15257;DHT22;7731;50.720;6.912;2022-12-18T05:07:00;-4.50;99.90
15257;DHT22;7731;50.720;6.912;2022-12-18T05:09:30;-4.50;99.90
15257;DHT22;7731;50.720;6.912;2022-12-18T05:12:00;-4.50;99.90
15257;DHT22;7731;50.720;6.912;2022-12-18T05:14:30;-4.50;99.90
15257;DHT22;7731;50.720;6.912;2022-12-18T05:17:00;-4.60;99.90
15257;DHT22;7731;50.720;6.912;2022-12-18T05:19:33;-4.60;99.90
15257;DHT22;7731;50.720;6.912;2022-12-18T05:22:09;-4.60;99.90
15257;DHT22;7731;50.720;6.912;2022-12-18T05:24:39;-4.50;99.90
15257;DHT22;7731;50.720;6.912;2022-12-18T05:27:09;-4.50;99.90
15257;DHT22;7731;50.720;6.912;2022-12-18T05:29:40;-4.50;99.90
15257;DHT22;7731;50.720;6.912;2022-12-18T05:32:10;-4.50;99.90
15257;DHT22;7731;50.720;6.912;2022-12-18T05:34:43;-4.50;99.90
15257;DHT22;7731;50.720;6.912;2022-12-18T05:37:13;-4.50;99.90
15257;DHT22;7731;50.720;6.912;2022-12-18T05:39:44;-4.50;99.90
15257;DHT22;7731;50.720;6.912;2022-12-18T05:42:14;-4.50;99.90
15257;DHT22;7731;50.720;6.912;2022-12-18T05:44:44;-4.50;99.90
15257;DHT22;7731;50.720;6.912;2022-12-18T05:47:14;-4.50;99.90
15257;DHT22;7731;50.720;6.912;2022-12-18T05:49:47;-4.50;99.90
15257;DHT22;7731;50.720;6.912;2022-12-18T05:52:17;-4.40;99.90
15257;DHT22;7731;50.720;6.912;2022-12-18T05:54:47;-4.50;99.90
15257;DHT22;7731;50.720;6.912;2022-12-18T05:57:18;-4.40;99.90
15257;DHT22;7731;50.720;6.912;2022-12-18T05:59:48;-4.40;99.90
15257;DHT22;7731;50.720;6.912;2022-12-18T06:02:18;-4.50;99.90
15257;DHT22;7731;50.720;6.912;2022-12-18T06:04:56;-4.40;99.90
15257;DHT22;7731;50.720;6.912;2022-12-18T06:07:26;-4.40;99.90
15257;DHT22;7731;50.720;6.912;2022-12-18T06:09:57;-4.50;99.90
15257;DHT22;7731;50.720;6.912;2022-12-18T06:12:27;-4.50;99.90
15257;DHT22;7731;50.720;6.912;2022-12-18T06:14:57;-4.50;99.90
15257;DHT22;7731;50.720;6.912;2022-12-18T06:17:28;-4.50;99.90
15257;DHT22;7731;50.720;6.912;2022-12-18T06:20:02;-4.40;99.90
15257;DHT22;7731;50.720;6.912;2022-12-18T06:22:36;-4.40;99.90
15257;DHT22;7731;50.720;6.912;2022-12-18T06:25:08;-4.50;99.90
15257;DHT22;7731;50.720;6.912;2022-12-18T06:27:38;-4.40;99.90
15257;DHT22;7731;50.720;6.912;2022-12-18T06:30:13;-4.40;99.90
15257;DHT22;7731;50.720;6.912;2022-12-18T06:32:44;-4.40;99.90
15257;DHT22;7731;50.720;6.912;2022-12-18T06:35:25;-4.40;99.90
15257;DHT22;7731;50.720;6.912;2022-12-18T06:37:55;-4.50;99.90
15257;DHT22;7731;50.720;6.912;2022-12-18T06:40:25;-4.40;99.90
15257;DHT22;7731;50.720;6.912;2022-12-18T06:42:55;-4.40;99.90
15257;DHT22;7731;50.720;6.912;2022-12-18T06:45:27;-4.40;99.90
15257;DHT22;7731;50.720;6.912;2022-12-18T06:47:58;-4.40;99.90
15257;DHT22;7731;50.720;6.912;2022-12-18T06:50:42;-4.40;99.90
15257;DHT22;7731;50.720;6.912;2022-12-18T06:53:12;-4.40;99.90
15257;DHT22;7731;50.720;6.912;2022-12-18T06:55:43;-4.40;99.90
15257;DHT22;7731;50.720;6.912;2022-12-18T06:58:13;-4.40;99.90
15257;DHT22;7731;50.720;6.912;2022-12-18T07:00:44;-4.40;99.90
15257;DHT22;7731;50.720;6.912;2022-12-18T07:03:15;-4.40;99.90
15257;DHT22;7731;50.720;6.912;2022-12-18T07:05:48;-4.40;99.90
15257;DHT22;7731;50.720;6.912;2022-12-18T07:08:18;-4.40;99.90
15257;DHT22;7731;50.720;6.912;2022-12-18T07:10:49;-4.40;99.90
15257;DHT22;7731;50.720;6.912;2022-12-18T07:13:23;-4.40;99.90
15257;DHT22;7731;50.720;6.912;2022-12-18T07:15:54;-4.30;99.90
15257;DHT22;7731;50.720;6.912;2022-12-18T07:18:24;-4.30;99.90
15257;DHT22;7731;50.720;6.912;2022-12-18T07:20:57;-4.30;99.90
15257;DHT22;7731;50.720;6.912;2022-12-18T07:23:32;-4.30;99.90
15257;DHT22;7731;50.720;6.912;2022-12-18T07:26:07;-4.30;99.90
15257;DHT22;7731;50.720;6.912;2022-12-18T07:28:40;-4.30;99.90
15257;DHT22;7731;50.720;6.912;2022-12-18T07:31:13;-4.30;99.90
15257;DHT22;7731;50.720;6.912;2022-12-18T07:33:49;-4.30;99.90
15257;DHT22;7731;50.720;6.912;2022-12-18T07:36:27;-4.30;99.90
15257;DHT22;7731;50.720;6.912;2022-12-18T07:38:58;-4.20;99.90
15257;DHT22;7731;50.720;6.912;2022-12-18T07:41:30;-4.30;99.90
15257;DHT22;7731;50.720;6.912;2022-12-18T07:44:00;-4.30;99.90
15257;DHT22;7731;50.720;6.912;2022-12-18T07:46:31;-4.30;99.90
15257;DHT22;7731;50.720;6.912;2022-12-18T07:49:02;-4.30;99.90
15257;DHT22;7731;50.720;6.912;2022-12-18T07:51:37;-4.20;99.90
15257;DHT22;7731;50.720;6.912;2022-12-18T07:54:08;-4.20;99.90
15257;DHT22;7731;50.720;6.912;2022-12-18T07:56:38;-4.20;99.90
15257;DHT22;7731;50.720;6.912;2022-12-18T07:59:10;-4.20;99.90
15257;DHT22;7731;50.720;6.912;2022-12-18T08:01:40;-4.10;99.90
15257;DHT22;7731;50.720;6.912;2022-12-18T08:04:14;-4.00;99.90
15257;DHT22;7731;50.720;6.912;2022-12-18T08:06:48;-4.00;99.90
15257;DHT22;7731;50.720;6.912;2022-12-18T08:09:18;-4.00;99.90
15257;DHT22;7731;50.720;6.912;2022-12-18T08:11:49;-3.90;99.90
15257;DHT22;7731;50.720;6.912;2022-12-18T08:14:19;-3.90;99.90
15257;DHT22;7731;50.720;6.912;2022-12-18T08:16:50;-3.80;99.90
15257;DHT22;7731;50.720;6.912;2022-12-18T08:19:21;-3.80;99.90
15257;DHT22;7731;50.720;6.912;2022-12-18T08:21:54;-3.80;99.90
15257;DHT22;7731;50.720;6.912;2022-12-18T08:24:25;-3.70;99.90
15257;DHT22;7731;50.720;6.912;2022-12-18T08:26:55;-3.60;99.90
15257;DHT22;7731;50.720;6.912;2022-12-18T08:29:45;-3.50;99.90
15257;DHT22;7731;50.720;6.912;2022-12-18T08:32:15;-3.30;99.90
15257;DHT22;7731;50.720;6.912;2022-12-18T08:34:46;-3.20;99.90
15257;DHT22;7731;50.720;6.912;2022-12-18T08:37:18;-3.10;99.90
15257;DHT22;7731;50.720;6.912;2022-12-18T08:39:49;-3.00;99.90
15257;DHT22;7731;50.720;6.912;2022-12-18T08:42:20;-2.90;99.90
15257;DHT22;7731;50.720;6.912;2022-12-18T08:45:04;-2.90;99.90
15257;DHT22;7731;50.720;6.912;2022-12-18T08:47:34;-2.90;99.90
15257;DHT22;7731;50.720;6.912;2022-12-18T08:50:06;-2.80;99.90
15257;DHT22;7731;50.720;6.912;2022-12-18T08:52:41;-2.70;99.90
15257;DHT22;7731;50.720;6.912;2022-12-18T08:55:12;-2.60;99.90
15257;DHT22;7731;50.720;6.912;2022-12-18T08:57:43;-2.60;99.90
15257;DHT22;7731;50.720;6.912;2022-12-18T09:00:18;-2.40;99.90
15257;DHT22;7731;50.720;6.912;2022-12-18T09:02:48;-2.30;99.90
15257;DHT22;7731;50.720;6.912;2022-12-18T09:05:19;-2.10;99.90
15257;DHT22;7731;50.720;6.912;2022-12-18T09:07:55;-1.80;99.90
15257;DHT22;7731;50.720;6.912;2022-12-18T09:10:26;-1.50;78.40
15257;DHT22;7731;50.720;6.912;2022-12-18T09:12:56;-1.00;35.80
15257;DHT22;7731;50.720;6.912;2022-12-18T09:15:26;-0.70;12.10
15257;DHT22;7731;50.720;6.912;2022-12-18T09:17:56;-0.20;1.00
15257;DHT22;7731;50.720;6.912;2022-12-18T09:20:26;0.00;1.00
15257;DHT22;7731;50.720;6.912;2022-12-18T09:23:05;0.50;1.00
15257;DHT22;7731;50.720;6.912;2022-12-18T09:25:36;0.60;1.00
15257;DHT22;7731;50.720;6.912;2022-12-18T09:28:14;1.00;1.00
15257;DHT22;7731;50.720;6.912;2022-12-18T09:30:48;1.50;99.90
15257;DHT22;7731;50.720;6.912;2022-12-18T09:33:20;2.20;99.90
15257;DHT22;7731;50.720;6.912;2022-12-18T09:35:50;2.50;1.00
15257;DHT22;7731;50.720;6.912;2022-12-18T09:38:23;2.80;1.00
15257;DHT22;7731;50.720;6.912;2022-12-18T09:40:56;2.90;1.00
15257;DHT22;7731;50.720;6.912;2022-12-18T09:43:35;2.50;99.90
15257;DHT22;7731;50.720;6.912;2022-12-18T09:46:16;1.40;99.90
15257;DHT22;7731;50.720;6.912;2022-12-18T09:48:54;1.10;9.60
15257;DHT22;7731;50.720;6.912;2022-12-18T09:51:32;0.70;99.90
15257;DHT22;7731;50.720;6.912;2022-12-18T09:54:13;0.70;99.90
15257;DHT22;7731;50.720;6.912;2022-12-18T09:56:48;0.60;1.00
15257;DHT22;7731;50.720;6.912;2022-12-18T09:59:23;0.70;1.00
15257;DHT22;7731;50.720;6.912;2022-12-18T10:01:57;1.00;99.90
15257;DHT22;7731;50.720;6.912;2022-12-18T10:04:30;0.80;99.90
15257;DHT22;7731;50.720;6.912;2022-12-18T10:07:06;0.70;1.00
15257;DHT22;7731;50.720;6.912;2022-12-18T10:09:52;0.80;1.00
15257;DHT22;7731;50.720;6.912;2022-12-18T10:12:36;0.70;1.00
15257;DHT22;7731;50.720;6.912;2022-12-18T10:15:17;0.60;1.00
15257;DHT22;7731;50.720;6.912;2022-12-18T10:18:00;0.90;99.90
15257;DHT22;7731;50.720;6.912;2022-12-18T10:20:49;1.10;99.90
15257;DHT22;7731;50.720;6.912;2022-12-18T10:23:26;1.40;99.90
15257;DHT22;7731;50.720;6.912;2022-12-18T10:26:07;1.30;15.70
15257;DHT22;7731;50.720;6.912;2022-12-18T10:28:40;1.80;1.00
15257;DHT22;7731;50.720;6.912;2022-12-18T10:31:15;2.10;99.90
15257;DHT22;7731;50.720;6.912;2022-12-18T10:33:50;2.20;99.90
15257;DHT22;7731;50.720;6.912;2022-12-18T10:36:23;2.30;82.50
15257;DHT22;7731;50.720;6.912;2022-12-18T10:38:58;1.90;99.90
15257;DHT22;7731;50.720;6.912;2022-12-18T10:41:51;1.70;1.00
15257;DHT22;7731;50.720;6.912;2022-12-18T10:44:42;1.90;99.90
15257;DHT22;7731;50.720;6.912;2022-12-18T10:47:14;1.60;1.00
15257;DHT22;7731;50.720;6.912;2022-12-18T10:49:50;1.40;1.00
15257;DHT22;7731;50.720;6.912;2022-12-18T10:52:25;1.30;1.00
15257;DHT22;7731;50.720;6.912;2022-12-18T10:54:59;1.40;1.00
15257;DHT22;7731;50.720;6.912;2022-12-18T10:57:37;1.50;1.00
15257;DHT22;7731;50.720;6.912;2022-12-18T11:00:28;1.60;1.00
15257;DHT22;7731;50.720;6.912;2022-12-18T11:03:07;1.80;99.90
15257;DHT22;7731;50.720;6.912;2022-12-18T11:06:27;1.80;1.00
15257;DHT22;7731;50.720;6.912;2022-12-18T11:09:04;1.10;1.00
15257;DHT22;7731;50.720;6.912;2022-12-18T11:11:49;0.90;99.90
15257;DHT22;7731;50.720;6.912;2022-12-18T11:14:25;1.00;77.00
15257;DHT22;7731;50.720;6.912;2022-12-18T11:16:59;0.70;15.90
15257;DHT22;7731;50.720;6.912;2022-12-18T11:19:53;0.60;1.00
15257;DHT22;7731;50.720;6.912;2022-12-18T11:22:27;0.50;1.00
15257;DHT22;7731;50.720;6.912;2022-12-18T11:25:00;0.70;1.00
15257;DHT22;7731;50.720;6.912;2022-12-18T11:27:55;0.80;99.90
15257;DHT22;7731;50.720;6.912;2022-12-18T11:30:32;0.60;99.90
15257;DHT22;7731;50.720;6.912;2022-12-18T11:33:05;0.60;1.00
15257;DHT22;7731;50.720;6.912;2022-12-18T11:35:43;0.40;1.00
15257;DHT22;7731;50.720;6.912;2022-12-18T11:38:23;0.40;1.00
15257;DHT22;7731;50.720;6.912;2022-12-18T11:40:58;0.30;1.00
15257;DHT22;7731;50.720;6.912;2022-12-18T11:43:37;0.00;1.00
15257;DHT22;7731;50.720;6.912;2022-12-18T11:46:17;0.00;1.00
15257;DHT22;7731;50.720;6.912;2022-12-18T11:48:59;0.10;1.00
15257;DHT22;7731;50.720;6.912;2022-12-18T11:51:41;0.10;1.00
15257;DHT22;7731;50.720;6.912;2022-12-18T11:54:15;0.10;1.00
15257;DHT22;7731;50.720;6.912;2022-12-18T11:56:49;0.20;1.00
15257;DHT22;7731;50.720;6.912;2022-12-18T11:59:37;0.20;1.00
15257;DHT22;7731;50.720;6.912;2022-12-18T12:05:58;0.30;1.00
15257;DHT22;7731;50.720;6.912;2022-12-18T12:08:45;0.10;1.00
15257;DHT22;7731;50.720;6.912;2022-12-18T12:11:35;0.00;1.00
15257;DHT22;7731;50.720;6.912;2022-12-18T12:17:29;-0.20;1.00
15257;DHT22;7731;50.720;6.912;2022-12-18T12:20:13;-0.30;1.00
15257;DHT22;7731;50.720;6.912;2022-12-18T12:22:53;-0.30;1.00
15257;DHT22;7731;50.720;6.912;2022-12-18T12:25:36;-0.50;1.00
15257;DHT22;7731;50.720;6.912;2022-12-18T12:28:20;-0.60;1.00
15257;DHT22;7731;50.720;6.912;2022-12-18T12:32:00;-0.50;1.00
15257;DHT22;7731;50.720;6.912;2022-12-18T12:34:49;-0.30;1.00
15257;DHT22;7731;50.720;6.912;2022-12-18T12:37:42;-0.20;1.00
15257;DHT22;7731;50.720;6.912;2022-12-18T12:40:26;-0.20;1.00
15257;DHT22;7731;50.720;6.912;2022-12-18T12:43:25;-0.30;1.00
15257;DHT22;7731;50.720;6.912;2022-12-18T12:46:04;-0.40;1.00
15257;DHT22;7731;50.720;6.912;2022-12-18T12:48:42;-0.20;1.00
15257;DHT22;7731;50.720;6.912;2022-12-18T12:51:22;-0.10;1.00
15257;DHT22;7731;50.720;6.912;2022-12-18T12:53:58;-0.20;1.00
15257;DHT22;7731;50.720;6.912;2022-12-18T12:56:38;-0.30;1.00
15257;DHT22;7731;50.720;6.912;2022-12-18T12:59:25;-0.30;1.00
15257;DHT22;7731;50.720;6.912;2022-12-18T13:02:13;-0.30;1.00
15257;DHT22;7731;50.720;6.912;2022-12-18T13:05:16;-0.30;1.00
15257;DHT22;7731;50.720;6.912;2022-12-18T13:07:59;-0.30;1.00
15257;DHT22;7731;50.720;6.912;2022-12-18T13:10:37;-0.40;1.00
15257;DHT22;7731;50.720;6.912;2022-12-18T13:13:10;-0.40;1.00
15257;DHT22;7731;50.720;6.912;2022-12-18T13:16:05;-0.40;2.90
15257;DHT22;7731;50.720;6.912;2022-12-18T13:18:37;-0.50;1.00
15257;DHT22;7731;50.720;6.912;2022-12-18T13:21:19;-0.50;1.00
15257;DHT22;7731;50.720;6.912;2022-12-18T13:24:14;-0.70;15.10
15257;DHT22;7731;50.720;6.912;2022-12-18T13:26:50;-0.90;30.00
15257;DHT22;7731;50.720;6.912;2022-12-18T13:29:42;-0.80;33.50
15257;DHT22;7731;50.720;6.912;2022-12-18T13:32:21;-0.80;39.20
15257;DHT22;7731;50.720;6.912;2022-12-18T13:38:21;-1.00;57.70
15257;DHT22;7731;50.720;6.912;2022-12-18T13:40:59;-1.10;72.60
15257;DHT22;7731;50.720;6.912;2022-12-18T13:43:39;-1.20;91.30
15257;DHT22;7731;50.720;6.912;2022-12-18T13:46:21;-1.00;76.00
15257;DHT22;7731;50.720;6.912;2022-12-18T13:49:00;-1.00;78.40
15257;DHT22;7731;50.720;6.912;2022-12-18T13:51:34;-0.90;51.60
15257;DHT22;7731;50.720;6.912;2022-12-18T13:54:17;-0.90;46.60
15257;DHT22;7731;50.720;6.912;2022-12-18T13:56:54;-0.90;57.20
15257;DHT22;7731;50.720;6.912;2022-12-18T13:59:25;-0.80;41.50
15257;DHT22;7731;50.720;6.912;2022-12-18T14:02:00;-0.80;20.40
15257;DHT22;7731;50.720;6.912;2022-12-18T14:04:40;-0.90;25.30
15257;DHT22;7731;50.720;6.912;2022-12-18T14:07:13;-0.90;38.20
15257;DHT22;7731;50.720;6.912;2022-12-18T14:09:49;-0.90;36.80
15257;DHT22;7731;50.720;6.912;2022-12-18T14:12:48;-0.90;46.00
15257;DHT22;7731;50.720;6.912;2022-12-18T14:15:33;-1.00;46.30
15257;DHT22;7731;50.720;6.912;2022-12-18T14:18:20;-1.00;41.80
15257;DHT22;7731;50.720;6.912;2022-12-18T14:20:55;-0.90;38.20
15257;DHT22;7731;50.720;6.912;2022-12-18T14:23:32;-1.00;48.30
15257;DHT22;7731;50.720;6.912;2022-12-18T14:26:21;-1.00;41.20
15257;DHT22;7731;50.720;6.912;2022-12-18T14:29:00;-1.00;41.50
15257;DHT22;7731;50.720;6.912;2022-12-18T14:32:04;-1.10;59.80
15257;DHT22;7731;50.720;6.912;2022-12-18T14:34:46;-1.30;82.10
15257;DHT22;7731;50.720;6.912;2022-12-18T14:37:21;-1.40;79.80
15257;DHT22;7731;50.720;6.912;2022-12-18T14:39:55;-1.40;91.20
15257;DHT22;7731;50.720;6.912;2022-12-18T14:42:36;-1.50;94.10
15257;DHT22;7731;50.720;6.912;2022-12-18T14:45:42;-1.50;96.90
15257;DHT22;7731;50.720;6.912;2022-12-18T14:48:17;-1.50;94.20
15257;DHT22;7731;50.720;6.912;2022-12-18T14:51:01;-1.60;97.70
15257;DHT22;7731;50.720;6.912;2022-12-18T14:53:37;-1.70;99.90
15257;DHT22;7731;50.720;6.912;2022-12-18T14:56:18;-1.80;99.90
15257;DHT22;7731;50.720;6.912;2022-12-18T14:58:56;-1.70;99.90
15257;DHT22;7731;50.720;6.912;2022-12-18T15:01:34;-1.80;99.90
15257;DHT22;7731;50.720;6.912;2022-12-18T15:04:27;-1.70;99.90
15257;DHT22;7731;50.720;6.912;2022-12-18T15:07:09;-1.70;99.90
15257;DHT22;7731;50.720;6.912;2022-12-18T15:10:02;-1.70;99.90
15257;DHT22;7731;50.720;6.912;2022-12-18T15:12:40;-1.70;99.90
15257;DHT22;7731;50.720;6.912;2022-12-18T15:18:20;-1.80;99.90
15257;DHT22;7731;50.720;6.912;2022-12-18T15:20:54;-1.80;99.90
15257;DHT22;7731;50.720;6.912;2022-12-18T15:23:29;-1.90;99.90
15257;DHT22;7731;50.720;6.912;2022-12-18T15:26:07;-1.80;99.90
15257;DHT22;7731;50.720;6.912;2022-12-18T15:28:44;-1.80;99.90
15257;DHT22;7731;50.720;6.912;2022-12-18T15:31:23;-1.80;99.90
15257;DHT22;7731;50.720;6.912;2022-12-18T15:34:12;-1.80;99.90
15257;DHT22;7731;50.720;6.912;2022-12-18T15:36:49;-1.70;99.90
15257;DHT22;7731;50.720;6.912;2022-12-18T15:39:19;-1.70;99.90
15257;DHT22;7731;50.720;6.912;2022-12-18T15:41:50;-1.80;99.90
15257;DHT22;7731;50.720;6.912;2022-12-18T15:44:35;-1.80;99.90
15257;DHT22;7731;50.720;6.912;2022-12-18T15:47:10;-1.70;99.90
15257;DHT22;7731;50.720;6.912;2022-12-18T15:49:44;-1.70;99.90
15257;DHT22;7731;50.720;6.912;2022-12-18T15:52:14;-1.80;99.90
15257;DHT22;7731;50.720;6.912;2022-12-18T15:54:53;-1.90;99.90
15257;DHT22;7731;50.720;6.912;2022-12-18T15:57:35;-1.80;99.90
15257;DHT22;7731;50.720;6.912;2022-12-18T16:00:11;-1.90;99.90
15257;DHT22;7731;50.720;6.912;2022-12-18T16:02:43;-1.90;99.90
15257;DHT22;7731;50.720;6.912;2022-12-18T16:05:18;-1.90;99.90
15257;DHT22;7731;50.720;6.912;2022-12-18T16:07:49;-1.90;99.90
15257;DHT22;7731;50.720;6.912;2022-12-18T16:10:21;-1.90;99.90
15257;DHT22;7731;50.720;6.912;2022-12-18T16:12:53;-2.00;99.90
15257;DHT22;7731;50.720;6.912;2022-12-18T16:15:24;-1.90;99.90
15257;DHT22;7731;50.720;6.912;2022-12-18T16:17:54;-1.90;99.90
15257;DHT22;7731;50.720;6.912;2022-12-18T16:20:27;-1.90;99.90
15257;DHT22;7731;50.720;6.912;2022-12-18T16:22:57;-1.90;99.90
15257;DHT22;7731;50.720;6.912;2022-12-18T16:25:28;-1.90;99.90
15257;DHT22;7731;50.720;6.912;2022-12-18T16:27:58;-1.90;99.90
15257;DHT22;7731;50.720;6.912;2022-12-18T16:30:30;-2.00;99.90
15257;DHT22;7731;50.720;6.912;2022-12-18T16:33:05;-2.00;99.90
15257;DHT22;7731;50.720;6.912;2022-12-18T16:35:38;-2.00;99.90
15257;DHT22;7731;50.720;6.912;2022-12-18T16:38:13;-1.90;99.90
15257;DHT22;7731;50.720;6.912;2022-12-18T16:40:43;-1.90;99.90
15257;DHT22;7731;50.720;6.912;2022-12-18T16:43:25;-2.00;99.90
15257;DHT22;7731;50.720;6.912;2022-12-18T16:45:58;-2.10;99.90
15257;DHT22;7731;50.720;6.912;2022-12-18T16:48:28;-2.10;99.90
15257;DHT22;7731;50.720;6.912;2022-12-18T16:51:04;-2.10;99.90
15257;DHT22;7731;50.720;6.912;2022-12-18T16:53:35;-2.00;99.90
15257;DHT22;7731;50.720;6.912;2022-12-18T16:56:06;-2.00;99.90
15257;DHT22;7731;50.720;6.912;2022-12-18T16:58:36;-2.00;99.90
15257;DHT22;7731;50.720;6.912;2022-12-18T17:01:09;-2.00;99.90
15257;DHT22;7731;50.720;6.912;2022-12-18T17:03:39;-2.00;99.90